Time;durP1;ratioP1;P1;durP2;ratioP2;P2;SDS_P1;SDS_P2;PMS_P1;PMS_P2;Temp;Humidity;BMP_temperature;BMP_pressure;BME280_temperature;BME280_humidity;BME280_pressure;Samples;Min_cycle;Max_cycle;Signal;HPM_P1;HPM_P2
2023/10/25 00:00:36;;;;;;;12.90;5.10;;;;;;;7.28;100.00;100031.94;4881921;29;20025;-93
2023/10/25 00:03:02;;;;;;;14.98;4.53;;;;;;;7.22;100.00;100019.31;4899788;29;20051;-92
2023/10/25 00:05:32;;;;;;;13.35;5.70;;;;;;;7.19;100.00;100017.88;4877960;29;20021;-92
2023/10/25 00:07:58;;;;;;;11.60;4.87;;;;;;;7.15;100.00;100025.56;4875289;29;20060;-92
2023/10/25 00:10:24;;;;;;;15.85;5.80;;;;;;;7.10;100.00;100025.38;4882537;29;20059;-93
2023/10/25 00:12:49;;;;;;;14.87;5.67;;;;;;;7.06;100.00;100018.75;4872190;29;20036;-92
2023/10/25 00:15:15;;;;;;;12.77;5.75;;;;;;;7.00;100.00;100006.13;4881542;29;20060;-93
2023/10/25 00:17:50;;;;;;;11.83;5.97;;;;;;;6.94;100.00;100009.63;4871602;29;20029;-92
2023/10/25 00:20:21;;;;;;;13.23;6.10;;;;;;;6.87;100.00;100001.59;4882613;29;20164;-92
2023/10/25 00:22:49;;;;;;;19.65;5.93;;;;;;;6.82;100.00;100002.22;4899477;29;20500;-93
2023/10/25 00:25:15;;;;;;;14.03;5.70;;;;;;;6.78;100.00;100003.69;4882859;29;20032;-92
2023/10/25 00:27:43;;;;;;;12.65;5.45;;;;;;;6.78;100.00;100003.69;4884019;29;20251;-92
2023/10/25 00:30:12;;;;;;;13.30;6.43;;;;;;;6.74;100.00;100005.13;4884321;29;20025;-92
2023/10/25 00:32:37;;;;;;;16.33;6.05;;;;;;;6.73;100.00;100005.34;4882689;29;20127;-92
2023/10/25 00:35:03;;;;;;;11.90;5.35;;;;;;;6.74;100.00;100015.09;4882170;29;20056;-93
2023/10/25 00:37:36;;;;;;;15.00;5.30;;;;;;;6.73;100.00;100013.44;4894901;29;20032;-92
2023/10/25 00:40:03;;;;;;;13.32;4.68;;;;;;;6.73;100.00;100010.72;4868834;29;20041;-92
2023/10/25 00:42:37;;;;;;;10.60;4.85;;;;;;;6.70;100.00;100009.28;4882269;29;20423;-92
2023/10/25 00:45:03;;;;;;;13.90;4.82;;;;;;;6.67;100.00;100001.63;4892388;29;20034;-92
2023/10/25 00:47:29;;;;;;;11.73;4.75;;;;;;;6.64;100.00;100016.38;4901909;29;20032;-92
2023/10/25 00:49:57;;;;;;;8.70;4.50;;;;;;;6.62;100.00;100013.03;4873315;29;20036;-93
2023/10/25 00:52:23;;;;;;;11.80;5.22;;;;;;;6.63;100.00;100019.28;4878986;29;20033;-92
2023/10/25 00:54:49;;;;;;;10.77;4.43;;;;;;;6.60;100.00;100019.66;4882036;29;20459;-92
2023/10/25 00:57:14;;;;;;;10.90;4.63;;;;;;;6.60;100.00;100014.28;4870024;29;20084;-92
2023/10/25 00:59:40;;;;;;;10.25;4.25;;;;;;;6.58;100.00;100002.88;4882008;29;20402;-92
2023/10/25 01:02:07;;;;;;;11.03;4.10;;;;;;;6.56;100.00;99995.00;4883847;29;20430;-92
2023/10/25 01:04:34;;;;;;;12.32;4.25;;;;;;;6.52;100.00;99995.66;4872901;29;20039;-92
2023/10/25 01:06:59;;;;;;;10.60;4.20;;;;;;;6.51;100.00;99997.53;4881383;29;20024;-92
2023/10/25 01:09:31;;;;;;;15.45;4.43;;;;;;;6.49;100.00;99986.91;4866851;29;20080;-92
2023/10/25 01:11:58;;;;;;;10.15;4.22;;;;;;;6.48;100.00;99993.38;4882012;29;20060;-92
2023/10/25 01:14:31;;;;;;;9.88;3.85;;;;;;;6.47;100.00;99982.81;4870300;29;20485;-92
2023/10/25 01:16:59;;;;;;;11.27;3.90;;;;;;;6.50;100.00;99987.78;4870523;29;20110;-92
2023/10/25 01:19:27;;;;;;;14.60;3.63;;;;;;;6.50;100.00;99987.78;4885806;29;20493;-93
2023/10/25 01:21:55;;;;;;;11.60;4.30;;;;;;;6.50;100.00;99987.78;4886141;29;20140;-93
2023/10/25 01:24:27;;;;;;;10.98;3.63;;;;;;;6.49;100.00;99975.31;4885848;29;20469;-92
2023/10/25 01:26:56;;;;;;;11.73;3.70;;;;;;;6.52;100.00;99979.47;4890960;29;20032;-93
2023/10/25 01:29:21;;;;;;;13.20;4.15;;;;;;;6.53;100.00;99965.78;4885596;29;20044;-93
2023/10/25 01:31:47;;;;;;;10.97;3.67;;;;;;;6.51;100.00;99959.78;4885909;29;20141;-93
2023/10/25 01:34:12;;;;;;;9.03;3.70;;;;;;;6.52;100.00;99957.91;4884766;29;20036;-94
2023/10/25 01:36:40;;;;;;;11.02;4.10;;;;;;;6.53;100.00;99949.63;4884739;29;20028;-93
2023/10/25 01:39:10;;;;;;;12.77;3.83;;;;;;;6.53;100.00;99949.63;4884707;29;20056;-93
2023/10/25 01:41:41;;;;;;;6.85;3.35;;;;;;;6.53;100.00;99946.09;4885762;29;20474;-93
2023/10/25 01:44:06;;;;;;;8.73;3.63;;;;;;;6.54;100.00;99943.19;4897583;29;20161;-93
2023/10/25 01:46:32;;;;;;;13.83;3.90;;;;;;;6.58;100.00;99941.72;4885353;29;20497;-92
2023/10/25 01:48:59;;;;;;;7.13;3.63;;;;;;;6.60;100.00;99938.81;4869869;29;20541;-92
2023/10/25 01:51:24;;;;;;;10.18;3.67;;;;;;;6.61;100.00;99938.59;4870144;29;20028;-92
2023/10/25 01:53:50;;;;;;;12.07;3.70;;;;;;;6.66;100.00;99933.41;4884846;29;20354;-92
2023/10/25 01:56:18;;;;;;;11.00;4.00;;;;;;;6.70;100.00;99933.78;4876821;29;20048;-92
2023/10/25 01:58:46;;;;;;;8.35;3.40;;;;;;;6.75;100.00;99920.53;4866499;29;20039;-93
2023/10/25 02:01:11;;;;;;;11.27;3.80;;;;;;;6.79;100.00;99916.38;4872041;29;20041;-92
2023/10/25 02:03:39;;;;;;;10.00;3.40;;;;;;;6.81;100.00;99916.16;4881430;29;20087;-92
2023/10/25 02:06:14;;;;;;;10.48;3.30;;;;;;;6.85;100.00;99918.22;4884924;29;20029;-94
2023/10/25 02:08:49;;;;;;;9.82;3.50;;;;;;;6.89;100.00;99926.69;4885137;29;20033;-92
2023/10/25 02:11:20;;;;;;;9.55;3.75;;;;;;;6.90;100.00;99912.16;4885301;29;20481;-92
2023/10/25 02:13:48;;;;;;;8.47;3.60;;;;;;;6.95;100.00;99911.53;4869525;29;20048;-92
2023/10/25 02:16:16;;;;;;;9.35;2.92;;;;;;;6.95;100.00;99917.75;4884958;29;20037;-92
2023/10/25 02:18:44;;;;;;;11.32;3.08;;;;;;;6.96;100.00;99914.00;4872885;29;20032;-92
2023/10/25 02:21:13;;;;;;;5.38;2.90;;;;;;;6.97;100.00;99904.88;4885029;29;20028;-93
2023/10/25 02:23:42;;;;;;;12.70;3.03;;;;;;;6.99;100.00;99907.34;4884452;29;20032;-92
2023/10/25 02:26:10;;;;;;;8.23;3.10;;;;;;;7.00;100.00;99896.34;4884267;29;20031;-93
2023/10/25 02:28:38;;;;;;;9.20;2.90;;;;;;;7.04;100.00;99894.03;4869303;29;20033;-92
2023/10/25 02:31:03;;;;;;;6.72;2.72;;;;;;;7.06;100.00;99893.81;4883976;29;20043;-93
2023/10/25 02:33:31;;;;;;;8.43;2.70;;;;;;;7.10;100.00;99889.66;4884646;29;20115;-92
2023/10/25 02:35:56;;;;;;;8.25;3.00;;;;;;;7.14;100.00;99888.19;4883744;29;20039;-92
2023/10/25 02:38:27;;;;;;;6.43;2.90;;;;;;;7.15;100.00;99882.56;4884710;29;20020;-92
2023/10/25 02:40:54;;;;;;;10.40;3.35;;;;;;;7.16;100.00;99872.59;4884462;29;20040;-92
2023/10/25 02:43:28;;;;;;;10.00;2.65;;;;;;;7.14;100.00;99883.59;4870405;29;20040;-92
2023/10/25 02:46:02;;;;;;;6.60;2.00;;;;;;;7.17;100.00;99874.25;4901849;29;20060;-93
2023/10/25 02:48:30;;;;;;;6.25;2.47;;;;;;;7.18;100.00;99871.34;4884462;29;20119;-92
2023/10/25 02:51:02;;;;;;;12.13;2.60;;;;;;;7.21;100.00;99864.69;4884398;29;20047;-93
2023/10/25 02:53:30;;;;;;;6.82;2.72;;;;;;;7.20;100.00;99860.34;4869010;29;20041;-92
2023/10/25 02:56:02;;;;;;;9.68;2.50;;;;;;;7.24;100.00;99863.44;4872248;29;20032;-92
2023/10/25 02:58:28;;;;;;;8.35;2.28;;;;;;;7.26;100.00;99851.38;4883714;29;20093;-93
2023/10/25 03:00:56;;;;;;;7.97;2.42;;;;;;;7.29;100.00;99853.66;4872486;29;20473;-92
2023/10/25 03:03:33;;;;;;;8.70;2.40;;;;;;;7.33;100.00;99848.63;4883831;29;20036;-92
2023/10/25 03:06:05;;;;;;;5.18;2.45;;;;;;;7.36;100.00;99840.91;4883852;29;20024;-92
2023/10/25 03:08:32;;;;;;;5.85;2.47;;;;;;;7.41;100.00;99836.75;4884042;29;20032;-92
2023/10/25 03:11:03;;;;;;;16.42;2.50;;;;;;;7.47;100.00;99838.56;4868513;29;20123;-92
2023/10/25 03:13:32;;;;;;;4.20;2.40;;;;;;;7.47;100.00;99830.47;4868419;29;20087;-92
2023/10/25 03:15:58;;;;;;;7.22;2.30;;;;;;;7.50;100.00;99830.88;4884117;29;20383;-92
2023/10/25 03:18:26;;;;;;;11.70;2.90;;;;;;;7.51;100.00;99821.72;4883767;29;20088;-93
2023/10/25 03:21:00;;;;;;;7.25;2.35;;;;;;;7.54;100.00;99820.44;4883853;29;20040;-92
2023/10/25 03:23:25;;;;;;;9.73;2.38;;;;;;;7.55;100.00;99825.63;4883422;29;20029;-92
2023/10/25 03:25:51;;;;;;;6.30;2.00;;;;;;;7.60;100.00;99818.75;4883815;29;20040;-92
2023/10/25 03:28:18;;;;;;;6.23;2.33;;;;;;;7.61;100.00;99815.00;4883665;29;20028;-92
2023/10/25 03:30:44;;;;;;;7.53;2.35;;;;;;;7.63;100.00;99821.00;4883373;29;20032;-92
2023/10/25 03:33:12;;;;;;;9.30;2.47;;;;;;;7.63;100.00;99811.03;4883360;29;20048;-93
2023/10/25 03:35:40;;;;;;;7.18;2.35;;;;;;;7.64;100.00;99811.84;4851846;29;20096;-92
2023/10/25 03:38:19;;;;;;;;;;;;;;;;;;;;;
2023/10/25 03:40:46;;;;;;;9.80;2.40;;;;;;;7.66;100.00;99812.44;4900617;29;20466;-92
2023/10/25 03:43:16;;;;;;;6.97;2.35;;;;;;;7.67;100.00;99804.13;4883620;29;20037;-92
2023/10/25 03:45:47;;;;;;;8.52;2.38;;;;;;;7.69;100.00;99799.34;4883554;29;20041;-92
2023/10/25 03:48:12;;;;;;;9.80;2.35;;;;;;;7.71;100.00;99802.63;4868631;29;20037;-92
2023/10/25 03:50:38;;;;;;;8.73;2.77;;;;;;;7.69;100.00;99802.03;4885509;29;20099;-93
2023/10/25 03:53:03;;;;;;;10.30;2.33;;;;;;;7.73;100.00;99803.22;4892701;29;20037;-92
2023/10/25 03:55:32;;;;;;;5.70;2.33;;;;;;;7.73;100.00;99797.00;4882830;29;20043;-92
2023/10/25 03:57:57;;;;;;;13.70;2.40;;;;;;;7.75;100.00;99794.09;4883201;29;20071;-92
2023/10/25 04:00:23;;;;;;;7.15;2.30;;;;;;;7.75;100.00;99792.25;4895225;29;20052;-92
2023/10/25 04:02:48;;;;;;;6.10;2.00;;;;;;;7.75;100.00;99789.53;4883243;29;20039;-92
2023/10/25 04:05:19;;;;;;;12.38;2.22;;;;;;;7.75;100.00;99789.53;4882156;29;20136;-92
2023/10/25 04:07:44;;;;;;;5.93;2.17;;;;;;;7.78;100.00;99791.78;4868215;29;20044;-92
2023/10/25 04:10:12;;;;;;;9.47;2.47;;;;;;;7.78;100.00;99788.25;4882916;29;20036;-92
2023/10/25 04:12:38;;;;;;;8.50;2.58;;;;;;;7.80;100.00;99781.56;4883633;29;20028;-92
2023/10/25 04:15:09;;;;;;;7.87;2.40;;;;;;;7.81;100.00;99783.25;4882425;29;20048;-92
2023/10/25 04:17:40;;;;;;;7.43;2.30;;;;;;;7.82;100.00;99781.34;4883327;29;20040;-92
2023/10/25 04:20:07;;;;;;;5.97;2.30;;;;;;;7.84;100.00;99788.19;4882920;29;20498;-92
2023/10/25 04:22:43;;;;;;;8.23;2.10;;;;;;;7.84;100.00;99787.34;4882720;29;20029;-93
2023/10/25 04:25:15;;;;;;;8.25;2.20;;;;;;;7.87;100.00;99781.53;4871462;29;20025;-93
2023/10/25 04:27:53;;;;;;;8.50;2.55;;;;;;;7.88;100.00;99792.09;4883564;29;20036;-92
2023/10/25 04:30:23;;;;;;;4.75;2.20;;;;;;;7.86;100.00;99780.69;4868290;29;20064;-93
2023/10/25 04:32:57;;;;;;;10.07;2.70;;;;;;;7.90;100.00;99772.97;4882808;29;20028;-92
2023/10/25 04:35:25;;;;;;;5.00;2.53;;;;;;;7.93;100.00;99777.94;4867845;29;20485;-92
2023/10/25 04:37:58;;;;;;;10.75;2.92;;;;;;;7.94;100.00;99774.16;4882357;29;20150;-92
2023/10/25 04:40:24;;;;;;;9.70;3.42;;;;;;;7.94;100.00;99770.63;4881719;29;20039;-92
2023/10/25 04:43:01;;;;;;;5.85;2.80;;;;;;;7.96;100.00;99760.41;4882204;29;20044;-92
2023/10/25 04:45:29;;;;;;;6.27;2.80;;;;;;;7.96;100.00;99763.97;4867953;29;20370;-92
2023/10/25 04:47:58;;;;;;;10.60;3.10;;;;;;;7.97;100.00;99759.38;4882086;29;20024;-92
2023/10/25 04:50:33;;;;;;;7.00;2.60;;;;;;;7.98;100.00;99755.63;4882279;29;20025;-92
2023/10/25 04:53:01;;;;;;;9.48;2.85;;;;;;;7.98;100.00;99752.94;4882630;29;20028;-92
2023/10/25 04:55:29;;;;;;;4.85;2.67;;;;;;;7.98;100.00;99742.13;4882175;29;20500;-92
2023/10/25 04:57:56;;;;;;;9.80;3.10;;;;;;;7.99;100.00;99747.31;4867001;29;20037;-92
2023/10/25 05:00:24;;;;;;;5.55;2.78;;;;;;;8.00;100.00;99732.75;4883132;29;20040;-92
2023/10/25 05:02:55;;;;;;;5.63;2.80;;;;;;;8.01;100.00;99739.78;4885179;29;20024;-92
2023/10/25 05:05:26;;;;;;;10.98;2.38;;;;;;;8.02;100.00;99727.13;4886203;29;20039;-93
2023/10/25 05:07:52;;;;;;;10.05;2.70;;;;;;;8.04;100.00;99727.72;4890469;29;20602;-92
2023/10/25 05:10:18;;;;;;;11.03;3.10;;;;;;;8.04;100.00;99730.41;4866549;29;20119;-92
2023/10/25 05:12:46;;;;;;;8.70;2.70;;;;;;;8.02;100.00;99719.03;4866872;29;20032;-92
2023/10/25 05:15:16;;;;;;;7.90;2.67;;;;;;;8.03;100.00;99720.66;4881812;29;20071;-92
2023/10/25 05:17:47;;;;;;;10.25;2.67;;;;;;;8.05;100.00;99716.69;4882303;29;20037;-93
2023/10/25 05:20:13;;;;;;;8.00;2.42;;;;;;;8.04;100.00;99711.50;4898525;29;20063;-92
2023/10/25 05:22:41;;;;;;;6.13;2.67;;;;;;;8.06;100.00;99715.63;4882319;29;20537;-92
2023/10/25 05:25:08;;;;;;;10.27;3.05;;;;;;;8.05;100.00;99702.38;4869143;29;20027;-93
2023/10/25 05:27:35;;;;;;;7.60;2.60;;;;;;;8.03;100.00;99697.19;4882413;29;20035;-93
2023/10/25 05:30:12;;;;;;;5.13;2.35;;;;;;;8.05;100.00;99697.78;4870093;29;20028;-94
2023/10/25 05:32:44;;;;;;;9.20;2.30;;;;;;;8.05;100.00;99689.66;4898864;29;20032;-93
2023/10/25 05:35:10;;;;;;;9.18;2.53;;;;;;;8.05;100.00;99691.56;4867453;29;20033;-93
2023/10/25 05:37:39;;;;;;;6.95;2.72;;;;;;;8.04;100.00;99688.00;4866939;29;20065;-92
2023/10/25 05:40:06;;;;;;;9.57;2.53;;;;;;;8.03;100.00;99686.38;4882011;29;20052;-92
2023/10/25 05:42:48;;;;;;;6.60;2.50;;;;;;;8.03;100.00;99680.97;4881617;29;20029;-91
2023/10/25 05:45:17;;;;;;;10.68;2.38;;;;;;;8.05;100.00;99678.06;4881574;29;20112;-92
2023/10/25 05:47:45;;;;;;;8.48;2.80;;;;;;;8.06;100.00;99677.81;4879272;29;20056;-91
2023/10/25 05:50:11;;;;;;;5.22;2.60;;;;;;;8.06;100.00;99677.81;4852564;29;20061;-92
2023/10/25 05:52:44;;;;;;;8.43;2.65;;;;;;;8.05;100.00;99667.25;4880817;29;20029;-91
2023/10/25 05:55:14;;;;;;;10.75;2.72;;;;;;;8.07;100.00;99674.06;4863955;29;20040;-92
2023/10/25 05:57:43;;;;;;;9.27;3.10;;;;;;;8.07;100.00;99663.28;4881909;29;20390;-93
2023/10/25 06:00:11;;;;;;;11.35;2.78;;;;;;;8.08;100.00;99670.31;4856405;29;20124;-92
2023/10/25 06:02:41;;;;;;;6.95;2.80;;;;;;;8.10;100.00;99670.06;4883084;29;20040;-89
2023/10/25 06:05:11;;;;;;;13.82;2.90;;;;;;;8.12;100.00;99661.72;4870099;29;20032;-92
2023/10/25 06:07:37;;;;;;;5.90;2.60;;;;;;;8.10;100.00;99659.25;4885246;29;20031;-92
2023/10/25 06:10:05;;;;;;;10.73;2.92;;;;;;;8.12;100.00;99667.97;4885026;29;20183;-91
2023/10/25 06:12:31;;;;;;;6.53;2.42;;;;;;;8.13;100.00;99666.91;4869403;29;20035;-91
2023/10/25 06:14:57;;;;;;;8.95;2.33;;;;;;;8.13;100.00;99660.69;4884854;29;20405;-92
2023/10/25 06:17:22;;;;;;;9.70;2.60;;;;;;;8.16;100.00;99654.81;4892243;29;20051;-91
2023/10/25 06:19:48;;;;;;;7.18;2.75;;;;;;;8.15;100.00;99653.16;4879508;29;20427;-91
2023/10/25 06:22:13;;;;;;;9.13;2.47;;;;;;;8.16;100.00;99650.25;4899050;29;20029;-92
2023/10/25 06:24:39;;;;;;;6.07;2.37;;;;;;;8.17;100.00;99638.38;4881051;29;20032;-92
2023/10/25 06:27:07;;;;;;;4.80;2.37;;;;;;;8.18;100.00;99637.34;4884520;29;20131;-92
2023/10/25 06:29:33;;;;;;;7.72;2.40;;;;;;;8.22;100.00;99635.00;4884632;29;20024;-91
2023/10/25 06:31:58;;;;;;;5.67;2.13;;;;;;;8.24;100.00;99627.50;4869530;29;20397;-92
2023/10/25 06:34:24;;;;;;;4.20;2.10;;;;;;;8.24;100.00;99624.78;4869289;29;20040;-93
2023/10/25 06:36:57;;;;;;;6.27;1.90;;;;;;;8.28;100.00;99622.44;4884871;29;20499;-92
2023/10/25 06:39:28;;;;;;;5.43;2.10;;;;;;;8.31;100.00;99624.69;4884272;29;20036;-92
2023/10/25 06:41:57;;;;;;;11.52;2.20;;;;;;;8.31;100.00;99620.13;4884486;29;20060;-92
2023/10/25 06:44:25;;;;;;;6.70;2.40;;;;;;;8.33;100.00;99612.59;4883804;29;20035;-92
2023/10/25 06:46:51;;;;;;;6.18;2.05;;;;;;;8.39;100.00;99618.97;4884477;29;20033;-91
2023/10/25 06:49:17;;;;;;;6.05;2.25;;;;;;;8.41;100.00;99614.13;4867089;29;20088;-89
2023/10/25 06:51:45;;;;;;;7.13;2.20;;;;;;;8.42;100.00;99603.09;4884800;29;20041;-90
2023/10/25 06:54:11;;;;;;;4.93;1.98;;;;;;;8.45;100.00;99591.03;4883842;29;20032;-92
2023/10/25 06:56:39;;;;;;;3.85;2.17;;;;;;;8.51;100.00;99600.09;4872892;29;20473;-91
2023/10/25 06:59:16;;;;;;;5.97;2.15;;;;;;;8.53;100.00;99592.56;4884773;29;20112;-93
2023/10/25 07:01:47;;;;;;;6.25;2.00;;;;;;;8.58;100.00;99590.00;4876968;29;20035;-92
2023/10/25 07:04:18;;;;;;;5.50;1.80;;;;;;;8.59;100.00;99587.06;4858062;29;20025;-91
2023/10/25 07:06:49;;;;;;;6.95;2.13;;;;;;;8.65;100.00;99587.19;4885995;29;20059;-91
2023/10/25 07:09:15;;;;;;;9.20;2.03;;;;;;;8.66;100.00;99580.72;4884177;29;20060;-91
2023/10/25 07:11:41;;;;;;;6.93;2.45;;;;;;;8.69;100.00;99566.72;4866745;29;20060;-91
2023/10/25 07:14:09;;;;;;;8.27;1.80;;;;;;;8.73;100.00;99579.53;4878216;29;20466;-92
2023/10/25 07:16:39;;;;;;;6.03;1.80;;;;;;;8.77;100.00;99571.81;4872386;29;20044;-93
2023/10/25 07:19:06;;;;;;;4.20;2.10;;;;;;;8.79;100.00;99572.38;4876457;29;20033;-90
2023/10/25 07:21:34;;;;;;;5.27;1.90;;;;;;;8.81;100.00;99581.06;4880526;29;20088;-91
2023/10/25 07:24:00;;;;;;;5.38;2.25;;;;;;;8.80;100.00;99571.34;4880695;29;20068;-90
2023/10/25 07:26:25;;;;;;;5.47;2.20;;;;;;;8.83;100.00;99575.44;4880876;29;20033;-91
2023/10/25 07:28:51;;;;;;;4.57;2.20;;;;;;;8.84;100.00;99571.66;4874350;29;20513;-89
2023/10/25 07:31:20;;;;;;;9.03;2.30;;;;;;;8.81;100.00;99561.31;4882044;29;20025;-90
2023/10/25 07:33:48;;;;;;;7.45;2.55;;;;;;;8.81;100.00;99559.44;4883773;29;20028;-91
2023/10/25 07:36:16;;;;;;;5.35;1.88;;;;;;;8.85;100.00;99557.09;4898246;29;20029;-91
2023/10/25 07:38:44;;;;;;;5.55;1.95;;;;;;;8.88;100.00;99553.91;4884300;29;20052;-90
2023/10/25 07:41:12;;;;;;;5.85;2.40;;;;;;;8.90;100.00;99549.94;4883370;29;20088;-91
2023/10/25 07:43:37;;;;;;;8.88;2.70;;;;;;;8.95;100.00;99546.50;4883189;29;20029;-91
2023/10/25 07:46:04;;;;;;;4.80;2.10;;;;;;;9.02;100.00;99546.38;4883343;29;20029;-91
2023/10/25 07:48:32;;;;;;;6.35;2.45;;;;;;;9.08;100.00;99537.28;4900127;29;20081;-91
2023/10/25 07:51:04;;;;;;;4.10;2.20;;;;;;;9.17;100.00;99529.63;4899583;29;20033;-91
2023/10/25 07:53:39;;;;;;;4.43;2.25;;;;;;;9.26;100.00;99526.34;4883282;29;20044;-91
2023/10/25 07:56:17;;;;;;;5.45;2.22;;;;;;;9.36;100.00;99520.31;4868608;29;20474;-91
2023/10/25 07:58:51;;;;;;;5.93;2.27;;;;;;;9.40;100.00;99512.53;4878892;29;20040;-91
2023/10/25 08:01:21;;;;;;;6.53;2.35;;;;;;;9.42;100.00;99507.69;4882556;29;20076;-91
2023/10/25 08:03:49;;;;;;;6.63;2.15;;;;;;;9.43;100.00;99498.50;4881681;29;20040;-91
2023/10/25 08:06:15;;;;;;;4.82;2.00;;;;;;;9.47;100.00;99505.09;4882333;29;20115;-91
2023/10/25 08:08:40;;;;;;;3.80;2.00;;;;;;;9.47;100.00;99500.50;4882090;29;20127;-91
2023/10/25 08:11:53;;;;;;;2.63;1.77;;;;;;;9.49;100.00;99505.66;5038950;27;3836475;-91
2023/10/25 08:14:19;;;;;;;4.07;2.25;;;;;;;9.50;100.00;99491.06;5134518;27;20045;-90
2023/10/25 08:16:52;;;;;;;8.23;2.65;;;;;;;9.54;100.00;99491.44;5117537;27;20035;-90
2023/10/25 08:19:19;;;;;;;2.75;1.70;;;;;;;9.60;100.00;99490.44;5134574;27;20565;-91
2023/10/25 08:21:45;;;;;;;4.93;2.00;;;;;;;9.68;100.00;99486.53;5134790;27;20027;-90
2023/10/25 08:24:19;;;;;;;5.28;2.00;;;;;;;9.70;100.00;99481.69;5117081;27;20080;-91
2023/10/25 08:26:45;;;;;;;4.30;1.80;;;;;;;9.74;100.00;99472.00;5133904;27;20027;-91
2023/10/25 08:29:11;;;;;;;4.35;1.83;;;;;;;9.78;100.00;99473.97;5133605;27;20037;-90
2023/10/25 08:31:38;;;;;;;7.23;2.20;;;;;;;9.77;100.00;99471.50;5113133;28;20020;-91
2023/10/25 08:34:05;;;;;;;4.93;1.83;;;;;;;9.77;100.00;99472.34;5128638;27;20045;-91
2023/10/25 08:36:36;;;;;;;5.28;2.05;;;;;;;9.77;100.00;99469.66;5133631;27;20481;-91
2023/10/25 08:39:02;;;;;;;5.23;2.20;;;;;;;9.74;100.00;99451.16;5133536;27;20038;-92
2023/10/25 08:41:37;;;;;;;8.52;2.35;;;;;;;9.76;100.00;99443.63;5133634;27;20466;-90
2023/10/25 08:44:08;;;;;;;8.98;2.28;;;;;;;9.76;100.00;99434.69;5140116;27;20113;-91
2023/10/25 08:46:33;;;;;;;7.07;2.33;;;;;;;9.79;100.00;99423.34;5142662;27;20092;-90
2023/10/25 08:49:02;;;;;;;7.90;2.17;;;;;;;9.80;100.00;99436.66;5133182;27;20439;-90
2023/10/25 08:51:28;;;;;;;7.97;2.40;;;;;;;9.83;100.00;99438.03;5133383;27;20098;-91
2023/10/25 08:54:01;;;;;;;5.17;1.90;;;;;;;9.83;100.00;99435.31;5131060;27;20113;-91
2023/10/25 08:56:27;;;;;;;4.60;2.20;;;;;;;9.85;100.00;99427.78;5133365;27;20632;-91
2023/10/25 08:58:57;;;;;;;6.38;2.15;;;;;;;9.86;100.00;99424.00;5131089;27;20027;-90
2023/10/25 09:01:27;;;;;;;6.15;2.25;;;;;;;9.91;100.00;99412.44;5132892;27;20027;-90
2023/10/25 09:03:53;;;;;;;8.50;2.50;;;;;;;9.93;100.00;99413.00;5143758;27;20027;-90
2023/10/25 09:06:26;;;;;;;10.75;2.90;;;;;;;9.93;100.00;99418.41;5131755;27;20023;-91
2023/10/25 09:09:02;;;;;;;14.98;2.97;;;;;;;9.91;100.00;99407.84;5129932;27;20037;-91
2023/10/25 09:11:41;;;;;;;13.27;3.13;;;;;;;9.86;100.00;99405.03;5129052;28;20050;-93
2023/10/25 09:14:12;;;;;;;7.10;2.60;;;;;;;9.83;100.00;99411.78;5122590;27;20448;-92
2023/10/25 09:16:46;;;;;;;7.00;2.47;;;;;;;9.81;100.00;99407.66;5133286;27;20059;-91
2023/10/25 09:19:23;;;;;;;7.45;2.35;;;;;;;9.79;100.00;99404.41;5128827;27;20087;-93
2023/10/25 09:21:52;;;;;;;6.45;2.50;;;;;;;9.74;100.00;99413.22;5126510;27;20126;-93
2023/10/25 09:24:49;;;;;;;8.03;2.40;;;;;;;9.72;100.00;99409.16;5120268;27;20042;-93
2023/10/25 09:27:17;;;;;;;8.32;2.15;;;;;;;9.64;100.00;99413.91;5119702;27;20058;-91
2023/10/25 09:29:44;;;;;;;5.57;2.30;;;;;;;9.63;100.00;99406.81;5119271;27;20092;-91
2023/10/25 09:32:15;;;;;;;4.97;2.45;;;;;;;9.65;100.00;99409.28;5119349;27;20023;-93
2023/10/25 09:34:41;;;;;;;7.10;2.92;;;;;;;9.62;100.00;99396.25;5121572;27;20030;-92
2023/10/25 09:37:07;;;;;;;9.03;2.93;;;;;;;9.58;100.00;99381.53;5120017;27;20034;-93
2023/10/25 09:39:38;;;;;;;6.38;2.90;;;;;;;9.56;100.00;99381.78;5117790;27;20031;-92
2023/10/25 09:42:25;;;;;;;8.27;3.10;;;;;;;9.59;100.00;99380.47;5119867;27;20451;-93
2023/10/25 09:45:01;;;;;;;4.87;2.40;;;;;;;9.56;100.00;99373.66;5091498;27;20491;-92
2023/10/25 09:47:36;;;;;;;10.23;2.80;;;;;;;9.55;100.00;99357.66;5118855;27;20023;-93
2023/10/25 09:50:21;;;;;;;8.18;2.47;;;;;;;9.52;100.00;99358.97;5119017;27;20031;-93
2023/10/25 09:52:56;;;;;;;6.60;2.88;;;;;;;9.51;100.00;99357.34;5119220;27;20031;-92
2023/10/25 09:55:30;;;;;;;6.82;3.40;;;;;;;9.49;100.00;99348.63;5118838;27;20038;-93
2023/10/25 09:57:59;;;;;;;5.43;2.80;;;;;;;9.51;100.00;99343.81;5119479;27;20459;-93
2023/10/25 10:00:30;;;;;;;8.55;3.22;;;;;;;9.52;100.00;99341.91;5084459;27;20027;-92
2023/10/25 10:03:02;;;;;;;5.88;3.20;;;;;;;9.50;100.00;99339.44;5099306;28;20059;-93
2023/10/25 10:05:36;;;;;;;8.23;3.67;;;;;;;9.51;100.00;99335.69;5117057;27;20060;-93
2023/10/25 10:08:11;;;;;;;5.72;3.30;;;;;;;9.45;100.00;99331.25;5118833;27;20070;-93
2023/10/25 10:10:57;;;;;;;8.20;3.13;;;;;;;9.45;100.00;99323.94;5101253;28;20040;-93
2023/10/25 10:13:26;;;;;;;8.10;3.70;;;;;;;9.46;100.00;99314.75;5116611;27;20483;-93
2023/10/25 10:16:09;;;;;;;11.35;4.20;;;;;;;9.47;100.00;99310.97;5115638;27;20038;-92
2023/10/25 10:18:55;;;;;;;8.07;4.22;;;;;;;9.48;100.00;99307.22;5107683;28;20024;-92
2023/10/25 10:21:24;;;;;;;7.18;4.35;;;;;;;9.53;100.00;99298.34;5100342;27;20093;-94
2023/10/25 10:23:53;;;;;;;6.17;4.17;;;;;;;9.55;100.00;99293.53;5118070;27;20121;-92
2023/10/25 10:26:48;;;;;;;6.85;4.15;;;;;;;9.57;100.00;99288.66;5108342;27;20437;-94
2023/10/25 10:29:33;;;;;;;10.20;4.95;;;;;;;9.58;100.00;99284.91;5116346;27;20079;-93
2023/10/25 10:32:15;;;;;;;7.88;4.13;;;;;;;9.55;100.00;99269.16;5105335;27;20028;-96
2023/10/25 10:34:43;;;;;;;8.35;4.60;;;;;;;9.58;100.00;99273.22;5115263;27;20023;-94
2023/10/25 10:37:23;;;;;;;10.33;4.53;;;;;;;9.58;100.00;99267.81;5110832;27;20035;-94
2023/10/25 10:40:00;;;;;;;8.32;4.10;;;;;;;9.63;100.00;99260.59;5116414;27;20030;-94
2023/10/25 10:42:29;;;;;;;7.25;3.88;;;;;;;9.64;100.00;99256.81;5118246;27;20069;-94
2023/10/25 10:45:06;;;;;;;8.35;4.07;;;;;;;9.62;100.00;99256.22;5135780;27;20085;-94
2023/10/25 10:48:01;;;;;;;;;;;;;;;;;;;;;
2023/10/25 10:50:32;;;;;;;6.40;3.67;;;;;;;9.64;100.00;99240.59;5130400;27;20027;-95
2023/10/25 10:53:02;;;;;;;8.50;3.72;;;;;;;9.71;100.00;99231.44;5101029;27;20066;-94
2023/10/25 10:55:33;;;;;;;7.40;3.72;;;;;;;9.75;100.00;99221.78;5117085;27;20487;-94
2023/10/25 10:58:02;;;;;;;6.72;4.03;;;;;;;9.75;100.00;99224.47;5117860;27;20382;-95
2023/10/25 11:00:31;;;;;;;5.45;3.70;;;;;;;9.75;100.00;99219.06;5115809;27;20026;-95
2023/10/25 11:03:00;;;;;;;7.80;3.60;;;;;;;9.76;100.00;99209.88;5100396;27;20019;-95
2023/10/25 11:05:32;;;;;;;10.63;4.18;;;;;;;9.76;100.00;99205.25;5115178;27;20027;-95
2023/10/25 11:07:57;;;;;;;6.53;3.58;;;;;;;9.77;100.00;99197.94;5097426;27;20035;-94
2023/10/25 11:10:23;;;;;;;7.00;4.13;;;;;;;9.81;100.00;99197.19;5117155;27;20031;-93
2023/10/25 11:12:51;;;;;;;9.52;4.10;;;;;;;9.80;100.00;99190.16;5117111;27;20292;-94
2023/10/25 11:15:19;;;;;;;6.40;3.58;;;;;;;9.84;100.00;99190.47;5116939;27;20039;-93
2023/10/25 11:17:45;;;;;;;6.68;3.92;;;;;;;9.90;100.00;99183.22;5115380;27;20073;-93
2023/10/25 11:20:10;;;;;;;4.55;3.67;;;;;;;9.91;100.00;99177.56;5095242;28;20421;-92
2023/10/25 11:22:38;;;;;;;9.33;4.03;;;;;;;9.98;100.00;99171.94;5109283;27;20403;-92
2023/10/25 11:25:11;;;;;;;8.10;3.45;;;;;;;9.99;100.00;99174.41;5100144;27;20029;-91
2023/10/25 11:27:43;;;;;;;5.60;3.25;;;;;;;10.01;100.00;99172.25;5116824;27;20127;-94
2023/10/25 11:30:14;;;;;;;7.80;3.38;;;;;;;9.99;100.00;99162.75;5104958;27;20023;-93
2023/10/25 11:32:42;;;;;;;6.57;3.75;;;;;;;10.01;100.00;99156.00;5104440;27;20023;-94
2023/10/25 11:35:22;;;;;;;6.47;3.90;;;;;;;10.04;100.00;99154.69;5117987;27;20475;-93
2023/10/25 11:37:53;;;;;;;8.57;3.85;;;;;;;10.04;100.00;99148.44;5105551;27;20504;-93
2023/10/25 11:40:19;;;;;;;6.05;3.60;;;;;;;10.08;100.00;99142.25;5114291;27;20030;-94
2023/10/25 11:42:50;;;;;;;6.47;3.38;;;;;;;10.08;100.00;99133.31;5135805;27;20027;-93